createdAt,value
2019-02-05T00:00:45.340Z,9.69
2019-02-05T00:03:15.619Z,9.70
2019-02-05T00:05:44.251Z,9.64
2019-02-05T00:08:12.942Z,9.43
2019-02-05T00:10:41.582Z,9.40
2019-02-05T00:13:10.270Z,9.44
2019-02-05T00:15:38.980Z,9.64
2019-02-05T00:18:07.586Z,9.69
2019-02-05T00:20:36.271Z,9.56
2019-02-05T00:23:04.918Z,9.65
2019-02-05T00:25:33.570Z,9.58
2019-02-05T00:28:02.209Z,9.51
2019-02-05T00:30:30.890Z,9.32
2019-02-05T00:32:59.524Z,9.16
2019-02-05T00:35:28.208Z,9.35
2019-02-05T00:37:56.861Z,9.45
2019-02-05T00:40:25.540Z,9.56
2019-02-05T00:42:54.119Z,9.47
2019-02-05T00:45:23.129Z,9.35
2019-02-05T00:47:51.732Z,9.34
2019-02-05T00:50:20.476Z,9.53
2019-02-05T00:52:49.171Z,9.43
2019-02-05T00:55:19.982Z,9.22
2019-02-05T00:57:48.603Z,9.30
2019-02-05T01:00:32.391Z,9.21
2019-02-05T01:03:01.036Z,9.27
2019-02-05T01:05:29.717Z,9.33
2019-02-05T01:07:58.375Z,9.25
2019-02-05T01:10:27.357Z,9.29
2019-02-05T01:12:56.506Z,9.32
2019-02-05T01:15:26.088Z,9.31
2019-02-05T01:17:54.715Z,9.18
2019-02-05T01:20:23.797Z,8.92
2019-02-05T01:22:52.719Z,9.03
2019-02-05T01:25:22.165Z,8.92
2019-02-05T01:27:51.274Z,8.77
2019-02-05T01:30:25.406Z,8.86
2019-02-05T01:32:56.956Z,8.82
2019-02-05T01:35:25.635Z,8.79
2019-02-05T01:37:55.260Z,8.78
2019-02-05T01:40:26.340Z,8.60
2019-02-05T01:42:55.699Z,8.36
2019-02-05T01:45:24.934Z,8.25
2019-02-05T01:47:53.673Z,8.06
2019-02-05T01:50:26.956Z,8.18
2019-02-05T01:52:55.868Z,8.26
2019-02-05T01:55:24.763Z,8.28
2019-02-05T01:57:53.552Z,8.13
2019-02-05T02:00:30.875Z,8.03
2019-02-05T02:02:59.859Z,8.09
2019-02-05T02:05:28.534Z,8.02
2019-02-05T02:07:57.639Z,8.02
2019-02-05T02:10:28.441Z,7.70
2019-02-05T02:12:57.223Z,7.66
2019-02-05T02:15:29.143Z,7.69
2019-02-05T02:17:57.784Z,7.69
2019-02-05T02:20:26.628Z,7.75
2019-02-05T02:22:55.629Z,7.54
2019-02-05T02:25:24.432Z,7.44
2019-02-05T02:27:53.136Z,7.46
2019-02-05T02:30:36.199Z,7.27
2019-02-05T02:33:05.240Z,7.24
2019-02-05T02:35:34.300Z,6.97
2019-02-05T02:38:02.936Z,6.73
2019-02-05T02:40:31.584Z,6.78
2019-02-05T02:43:00.183Z,6.69
2019-02-05T02:45:28.754Z,6.56
2019-02-05T02:47:57.444Z,6.56
2019-02-05T02:50:26.073Z,6.48
2019-02-05T02:52:54.713Z,6.46
2019-02-05T02:55:23.390Z,6.34
2019-02-05T02:57:52.003Z,6.16
2019-02-05T03:00:22.191Z,6.07
2019-02-05T03:02:51.902Z,6.32
2019-02-05T03:05:24.687Z,6.46
2019-02-05T03:07:53.352Z,6.35
2019-02-05T03:10:26.803Z,6.33
2019-02-05T03:12:55.441Z,6.31
2019-02-05T03:15:24.076Z,6.40
2019-02-05T03:17:52.704Z,6.44
2019-02-05T03:20:21.393Z,6.40
2019-02-05T03:22:50.326Z,6.35
2019-02-05T03:25:24.835Z,6.27
2019-02-05T03:27:54.400Z,6.21
2019-02-05T03:30:24.844Z,6.15
2019-02-05T03:32:55.205Z,6.09
2019-02-05T03:35:24.638Z,5.98
2019-02-05T03:37:53.273Z,5.84
2019-02-05T03:40:31.155Z,5.95
2019-02-05T03:43:00.098Z,5.96
2019-02-05T03:45:31.899Z,5.88
2019-02-05T03:48:02.829Z,5.68
2019-02-05T03:50:33.715Z,5.74
2019-02-05T03:53:15.590Z,5.77
2019-02-05T03:56:08.555Z,5.60
2019-02-05T03:58:49.927Z,5.54
2019-02-05T04:01:27.314Z,5.38
2019-02-05T04:04:15.638Z,5.29
2019-02-05T04:06:50.252Z,5.33
2019-02-05T04:09:38.461Z,5.32
2019-02-05T04:12:13.459Z,5.31
2019-02-05T04:14:47.899Z,5.31
2019-02-05T04:17:28.496Z,5.12
2019-02-05T04:20:24.283Z,5.08
2019-02-05T04:23:18.316Z,5.07
2019-02-05T04:26:06.684Z,5.00
2019-02-05T04:28:50.205Z,4.89
2019-02-05T04:31:36.804Z,4.69
2019-02-05T04:34:17.225Z,4.53
2019-02-05T04:37:17.761Z,4.49
2019-02-05T04:40:13.367Z,4.25
2019-02-05T04:42:53.290Z,4.23
2019-02-05T04:45:33.852Z,4.41
2019-02-05T04:48:06.930Z,4.47
2019-02-05T04:50:58.270Z,4.73
2019-02-05T04:54:03.402Z,4.68
2019-02-05T04:57:08.083Z,4.54
2019-02-05T05:00:12.784Z,4.32
2019-02-05T05:03:17.651Z,4.26
2019-02-05T05:06:22.485Z,4.10
2019-02-05T05:09:27.691Z,4.21
2019-02-05T05:12:15.400Z,4.40
2019-02-05T05:15:20.200Z,4.53
2019-02-05T05:18:08.326Z,4.42
2019-02-05T05:21:12.992Z,4.04
2019-02-05T05:24:01.159Z,4.05
2019-02-05T05:27:05.723Z,4.03
2019-02-05T05:29:53.759Z,3.72
2019-02-05T05:32:58.381Z,3.65
2019-02-05T05:35:46.485Z,3.68
2019-02-05T05:38:50.976Z,3.93
2019-02-05T05:41:39.255Z,3.87
2019-02-05T05:44:43.857Z,3.83
2019-02-05T05:50:33.784Z,3.99
2019-02-05T05:53:38.390Z,3.97
2019-02-05T05:56:26.264Z,3.94
2019-02-05T05:59:30.867Z,4.24
2019-02-05T06:02:20.724Z,4.48
2019-02-05T06:05:25.483Z,4.58
2019-02-05T06:08:14.039Z,4.76
2019-02-05T06:11:18.950Z,4.85
2019-02-05T06:14:07.318Z,4.94
2019-02-05T06:17:12.218Z,5.10
2019-02-05T06:20:00.342Z,5.04
2019-02-05T06:23:05.368Z,5.18
2019-02-05T06:25:52.992Z,5.32
2019-02-05T06:28:57.776Z,5.46
2019-02-05T06:31:49.178Z,5.41
2019-02-05T06:34:54.028Z,5.72
2019-02-05T06:37:44.116Z,5.83
2019-02-05T06:40:49.219Z,5.76
2019-02-05T06:43:37.710Z,5.90
2019-02-05T06:46:42.902Z,5.96
2019-02-05T06:49:31.416Z,6.11
2019-02-05T06:52:36.757Z,6.61
2019-02-05T06:55:25.462Z,6.90
2019-02-05T06:58:31.324Z,7.12
2019-02-05T07:01:19.989Z,7.46
2019-02-05T07:04:27.485Z,7.58
2019-02-05T07:07:20.213Z,8.15
2019-02-05T07:10:26.468Z,8.33
2019-02-05T07:12:57.888Z,8.32
2019-02-05T07:15:33.332Z,8.30
2019-02-05T07:18:07.521Z,8.67
2019-02-05T07:20:41.088Z,9.48
2019-02-05T07:23:16.258Z,10.14
2019-02-05T07:25:46.740Z,10.05
2019-02-05T07:28:15.631Z,10.90
2019-02-05T07:30:44.581Z,11.92
2019-02-05T07:33:16.898Z,12.39
2019-02-05T07:35:47.749Z,13.06
2019-02-05T07:38:24.386Z,13.71
2019-02-05T07:40:53.525Z,14.24
2019-02-05T07:43:31.086Z,15.12
2019-02-05T07:46:00.294Z,15.57
2019-02-05T07:48:30.779Z,16.05
2019-02-05T07:51:09.513Z,16.23
2019-02-05T07:53:41.951Z,17.20
2019-02-05T07:56:12.976Z,17.63
2019-02-05T07:58:44.195Z,18.01
2019-02-05T08:01:17.732Z,18.04
2019-02-05T08:03:46.492Z,18.27
2019-02-05T08:06:15.169Z,18.44
2019-02-05T08:08:43.806Z,18.61
2019-02-05T08:11:14.994Z,18.84
2019-02-05T08:13:43.836Z,19.13
2019-02-05T08:16:12.855Z,19.70
2019-02-05T08:18:45.187Z,19.53
2019-02-05T08:21:14.677Z,19.99
2019-02-05T08:23:47.723Z,20.86
2019-02-05T08:26:18.931Z,20.30
2019-02-05T08:28:51.043Z,20.15
2019-02-05T08:31:20.499Z,20.30
2019-02-05T08:33:52.019Z,21.21
2019-02-05T08:36:21.548Z,19.86
2019-02-05T08:38:51.826Z,19.52
2019-02-05T08:41:23.936Z,20.11
2019-02-05T08:43:53.409Z,20.25
2019-02-05T08:46:22.587Z,20.60
2019-02-05T08:48:52.597Z,21.52
2019-02-05T08:51:22.001Z,21.89
2019-02-05T08:53:54.710Z,21.89
2019-02-05T08:56:25.592Z,21.79
2019-02-05T08:58:54.774Z,22.20
2019-02-05T09:01:24.182Z,22.56
2019-02-05T09:03:57.188Z,22.99
2019-02-05T09:06:26.491Z,22.68
2019-02-05T09:08:55.382Z,22.67
2019-02-05T09:11:24.622Z,22.73
2019-02-05T09:14:10.583Z,21.54
2019-02-05T09:16:28.391Z,23.06
2019-02-05T09:18:57.332Z,23.31
2019-02-05T09:21:26.421Z,22.92
2019-02-05T09:23:55.679Z,22.45
2019-02-05T09:26:25.186Z,23.07
2019-02-05T09:28:53.866Z,24.03
2019-02-05T09:31:23.930Z,24.37
2019-02-05T09:33:52.644Z,22.96
2019-02-05T09:36:21.731Z,22.75
2019-02-05T09:38:50.476Z,23.12
2019-02-05T09:41:19.266Z,23.11
2019-02-05T09:43:48.678Z,22.36
2019-02-05T09:46:20.373Z,22.94
2019-02-05T09:48:50.904Z,23.83
2019-02-05T09:51:19.878Z,23.52
2019-02-05T09:53:48.538Z,22.77
2019-02-05T09:56:18.947Z,22.92
2019-02-05T09:58:47.621Z,22.89
2019-02-05T10:01:16.258Z,23.41
2019-02-05T10:03:44.937Z,23.35
2019-02-05T10:06:13.633Z,23.72
2019-02-05T10:08:43.215Z,24.02
2019-02-05T10:11:12.146Z,24.78
2019-02-05T10:13:40.854Z,24.28
2019-02-05T10:16:09.489Z,23.54
2019-02-05T10:18:38.135Z,23.78
2019-02-05T10:21:09.696Z,24.18
2019-02-05T10:23:38.329Z,22.68
2019-02-05T10:26:07.713Z,23.27
2019-02-05T10:28:36.336Z,22.34
2019-02-05T10:31:05.101Z,22.04
2019-02-05T10:33:35.456Z,22.67
2019-02-05T10:36:04.224Z,23.25
2019-02-05T10:38:33.850Z,24.03
2019-02-05T10:41:02.606Z,22.83
2019-02-05T10:43:32.772Z,21.71
2019-02-05T10:46:01.492Z,23.22
2019-02-05T10:48:30.336Z,23.10
2019-02-05T10:50:59.231Z,22.46
2019-02-05T10:53:28.070Z,23.40
2019-02-05T10:55:56.972Z,22.62
2019-02-05T10:58:28.289Z,22.67
2019-02-05T11:01:00.582Z,23.82
2019-02-05T11:03:29.973Z,24.57
2019-02-05T11:06:00.346Z,25.61
2019-02-05T11:08:30.665Z,25.64
2019-02-05T11:11:02.358Z,25.62
2019-02-05T11:13:36.189Z,26.29
2019-02-05T11:16:08.669Z,26.29
2019-02-05T11:18:37.018Z,26.68
2019-02-05T11:21:06.888Z,27.19
2019-02-05T11:23:35.828Z,26.11
2019-02-05T11:26:04.773Z,26.84
2019-02-05T11:28:33.999Z,26.64
2019-02-05T11:31:03.002Z,27.38
2019-02-05T11:33:32.346Z,26.59
2019-02-05T11:36:01.855Z,27.14
2019-02-05T11:38:30.855Z,27.39
2019-02-05T11:40:59.860Z,27.41
2019-02-05T11:43:34.322Z,27.76
2019-02-05T11:46:03.437Z,27.69
2019-02-05T11:48:34.548Z,27.54
2019-02-05T11:51:08.410Z,27.27
2019-02-05T11:53:37.683Z,27.25
2019-02-05T11:56:06.751Z,28.04
2019-02-05T11:58:38.421Z,26.86
2019-02-05T12:01:10.746Z,26.81
2019-02-05T12:03:43.337Z,27.12
2019-02-05T12:06:18.370Z,25.47
2019-02-05T12:08:50.544Z,22.50
2019-02-05T12:11:24.255Z,24.13
2019-02-05T12:13:56.759Z,24.94
2019-02-05T12:16:36.039Z,25.21
2019-02-05T12:19:07.082Z,26.11
2019-02-05T12:21:46.080Z,26.82
2019-02-05T12:24:21.727Z,26.92
2019-02-05T12:26:54.529Z,28.09
2019-02-05T12:29:30.304Z,27.17
2019-02-05T12:32:05.289Z,25.82
2019-02-05T12:34:47.714Z,26.41
2019-02-05T12:37:12.236Z,25.04
2019-02-05T12:39:44.355Z,25.37
2019-02-05T12:42:15.727Z,24.50
2019-02-05T12:44:47.150Z,25.16
2019-02-05T12:47:18.472Z,23.94
2019-02-05T12:49:53.914Z,24.00
2019-02-05T12:52:24.149Z,24.58
2019-02-05T12:54:52.940Z,25.16
2019-02-05T12:57:21.555Z,25.27
2019-02-05T12:59:50.226Z,25.58
2019-02-05T13:02:22.856Z,25.49
2019-02-05T13:04:51.543Z,25.53
2019-02-05T13:07:20.150Z,25.46
2019-02-05T13:09:48.716Z,26.19
2019-02-05T13:12:17.385Z,23.85
2019-02-05T13:14:49.307Z,23.07
2019-02-05T13:17:20.780Z,22.88
2019-02-05T13:19:49.434Z,22.89
2019-02-05T13:22:18.107Z,23.58
2019-02-05T13:24:46.923Z,23.61
2019-02-05T13:27:18.470Z,23.19
2019-02-05T13:29:49.465Z,24.09
2019-02-05T13:32:20.898Z,23.94
2019-02-05T13:34:49.724Z,23.84
2019-02-05T13:37:21.115Z,23.54
2019-02-05T13:39:49.980Z,24.58
2019-02-05T13:42:18.701Z,23.29
2019-02-05T13:44:47.777Z,23.08
2019-02-05T13:47:16.570Z,22.21
2019-02-05T13:49:45.417Z,22.33
2019-02-05T13:52:14.131Z,22.41
2019-02-05T13:54:42.847Z,22.41
2019-02-05T13:57:12.505Z,22.78
2019-02-05T13:59:43.386Z,23.24
2019-02-05T14:02:12.271Z,22.97
2019-02-05T14:04:41.072Z,22.02
2019-02-05T14:07:09.789Z,20.49
2019-02-05T14:09:41.340Z,20.45
2019-02-05T14:12:10.030Z,20.73
2019-02-05T14:14:38.941Z,20.82
2019-02-05T14:17:07.662Z,20.04
2019-02-05T14:19:36.264Z,19.53
2019-02-05T14:22:04.939Z,19.36
2019-02-05T14:24:33.681Z,18.97
2019-02-05T14:27:02.373Z,19.07
2019-02-05T14:29:31.008Z,19.07
2019-02-05T14:31:59.650Z,18.69
2019-02-05T14:34:31.001Z,19.12
2019-02-05T14:37:02.382Z,18.26
2019-02-05T14:39:31.051Z,18.26
2019-02-05T14:42:02.115Z,17.40
2019-02-05T14:44:30.939Z,17.28
2019-02-05T14:46:59.612Z,17.35
2019-02-05T14:49:28.215Z,16.68
2019-02-05T14:51:57.915Z,16.20
2019-02-05T14:54:29.592Z,15.50
2019-02-05T14:56:58.226Z,15.19
2019-02-05T14:59:27.181Z,14.46
2019-02-05T15:01:55.810Z,14.19
2019-02-05T15:04:25.054Z,13.90
2019-02-05T15:06:53.684Z,13.87
2019-02-05T15:09:22.324Z,13.61
2019-02-05T15:11:51.004Z,13.32
2019-02-05T15:14:19.638Z,13.05
2019-02-05T15:16:48.269Z,12.97
2019-02-05T15:19:16.970Z,12.61
2019-02-05T15:21:45.664Z,12.30
2019-02-05T15:24:14.450Z,12.08
2019-02-05T15:26:43.089Z,12.01
2019-02-05T15:29:11.830Z,11.79
2019-02-05T15:31:40.454Z,11.67
2019-02-05T15:34:10.745Z,11.53
2019-02-05T15:36:39.513Z,11.39
2019-02-05T15:39:11.042Z,11.33
2019-02-05T15:41:39.679Z,11.22
2019-02-05T15:44:08.350Z,11.16
2019-02-05T15:46:37.043Z,10.98
2019-02-05T15:49:05.729Z,10.91
2019-02-05T15:51:34.370Z,10.74
2019-02-05T15:54:02.929Z,10.56
2019-02-05T15:56:31.682Z,10.46
2019-02-05T15:59:00.324Z,10.42
2019-02-05T16:01:29.191Z,10.28
2019-02-05T16:03:57.806Z,10.22
2019-02-05T16:06:26.554Z,10.20
2019-02-05T16:08:55.190Z,10.12
2019-02-05T16:11:23.971Z,10.12
2019-02-05T16:13:52.704Z,10.02
2019-02-05T16:16:21.333Z,10.00
2019-02-05T16:18:53.205Z,9.96
2019-02-05T16:21:20.422Z,9.87
2019-02-05T16:23:49.830Z,9.76
2019-02-05T16:26:18.640Z,9.74
2019-02-05T16:28:47.992Z,9.66
2019-02-05T16:31:19.640Z,9.65
2019-02-05T16:33:48.270Z,9.65
2019-02-05T16:36:17.512Z,9.61
2019-02-05T16:38:46.224Z,9.58
2019-02-05T16:41:14.900Z,9.62
2019-02-05T16:43:44.158Z,9.65
2019-02-05T16:46:12.792Z,9.67
2019-02-05T16:48:41.482Z,9.68
2019-02-05T16:51:19.236Z,9.69
2019-02-05T16:53:47.911Z,9.67
2019-02-05T16:56:17.915Z,9.67
2019-02-05T16:58:49.958Z,9.61
2019-02-05T17:01:21.503Z,9.60
2019-02-05T17:03:50.281Z,9.57
2019-02-05T17:06:18.902Z,9.53
2019-02-05T17:08:47.622Z,9.56
2019-02-05T17:11:16.304Z,9.58
2019-02-05T17:13:44.940Z,9.54
2019-02-05T17:16:13.913Z,9.47
2019-02-05T17:18:42.547Z,9.42
2019-02-05T17:21:11.330Z,9.36
2019-02-05T17:23:39.886Z,9.30
2019-02-05T17:26:08.526Z,9.24
2019-02-05T17:28:37.702Z,9.16
2019-02-05T17:31:06.520Z,9.18
2019-02-05T17:33:38.134Z,9.16
2019-02-05T17:36:07.590Z,9.19
2019-02-05T17:38:37.878Z,9.20
2019-02-05T17:41:06.505Z,9.25
2019-02-05T17:43:35.210Z,9.16
2019-02-05T17:46:05.935Z,9.10
2019-02-05T17:48:34.767Z,9.10
2019-02-05T17:51:03.465Z,8.98
2019-02-05T17:53:32.162Z,8.88
2019-02-05T17:56:00.715Z,8.82
2019-02-05T17:58:32.752Z,8.73
2019-02-05T18:01:03.879Z,8.70
2019-02-05T18:03:32.581Z,8.71
2019-02-05T18:06:04.286Z,8.67
2019-02-05T18:08:35.826Z,8.68
2019-02-05T18:11:05.075Z,8.61
2019-02-05T18:13:33.805Z,8.54
2019-02-05T18:16:02.918Z,8.44
2019-02-05T18:18:31.592Z,8.37
2019-02-05T18:21:03.619Z,8.29
2019-02-05T18:23:32.371Z,8.21
2019-02-05T18:26:01.000Z,8.21
2019-02-05T18:28:31.041Z,8.24
2019-02-05T18:31:02.877Z,8.22
2019-02-05T18:33:31.673Z,8.12
2019-02-05T18:36:00.482Z,8.04
2019-02-05T18:38:29.135Z,8.01
2019-02-05T18:40:57.796Z,7.93
2019-02-05T18:43:26.501Z,7.88
2019-02-05T18:45:55.164Z,7.87
2019-02-05T18:48:26.833Z,7.86
2019-02-05T18:50:55.809Z,7.87
2019-02-05T18:53:24.427Z,7.78
2019-02-05T18:55:55.809Z,7.74
2019-02-05T18:58:26.694Z,7.69
2019-02-05T19:00:54.842Z,7.64
2019-02-05T19:03:23.517Z,7.67
2019-02-05T19:05:52.168Z,7.69
2019-02-05T19:08:20.945Z,7.69
2019-02-05T19:10:52.530Z,7.70
2019-02-05T19:13:21.341Z,7.64
2019-02-05T19:15:50.067Z,7.58
2019-02-05T19:18:18.949Z,7.59
2019-02-05T19:20:47.599Z,7.57
2019-02-05T19:23:16.225Z,7.53
2019-02-05T19:25:52.336Z,7.50
2019-02-05T19:28:31.363Z,7.53
2019-02-05T19:31:01.633Z,7.50
2019-02-05T19:33:30.262Z,7.41
2019-02-05T19:35:58.863Z,7.41
2019-02-05T19:38:27.569Z,7.34
2019-02-05T19:40:57.814Z,7.25
2019-02-05T19:43:29.576Z,7.17
2019-02-05T19:46:05.361Z,7.18
2019-02-05T19:48:38.750Z,7.14
2019-02-05T19:51:10.325Z,7.14
2019-02-05T19:53:39.017Z,7.19
2019-02-05T19:56:08.021Z,7.21
2019-02-05T19:58:37.129Z,7.13
2019-02-05T20:01:08.714Z,7.04
2019-02-05T20:03:39.022Z,7.09
2019-02-05T20:06:07.953Z,7.01
2019-02-05T20:08:38.027Z,7.04
2019-02-05T20:11:09.640Z,6.99
2019-02-05T20:13:40.762Z,7.03
2019-02-05T20:16:09.490Z,7.05
2019-02-05T20:18:40.864Z,7.09
2019-02-05T20:21:09.737Z,7.04
2019-02-05T20:23:38.377Z,7.08
2019-02-05T20:26:07.333Z,7.05
2019-02-05T20:28:36.353Z,7.13
2019-02-05T20:31:07.708Z,7.11
2019-02-05T20:33:36.351Z,7.20
2019-02-05T20:36:05.149Z,7.22
2019-02-05T20:38:33.896Z,7.24
2019-02-05T20:41:03.267Z,7.32
2019-02-05T20:43:32.030Z,7.38
2019-02-05T20:46:03.656Z,7.39
2019-02-05T20:48:35.432Z,7.39
2019-02-05T20:51:06.969Z,7.45
2019-02-05T20:53:35.599Z,7.42
2019-02-05T20:56:04.530Z,7.43
2019-02-05T20:58:33.318Z,7.18
2019-02-05T21:01:02.916Z,7.12
2019-02-05T21:03:31.592Z,7.11
2019-02-05T21:06:00.226Z,7.12
2019-02-05T21:08:32.013Z,7.13
2019-02-05T21:11:00.742Z,7.14
2019-02-05T21:13:29.292Z,7.14
2019-02-05T21:16:03.555Z,7.22
2019-02-05T21:18:35.266Z,7.27
2019-02-05T21:21:04.371Z,7.38
2019-02-05T21:23:33.046Z,7.34
2019-02-05T21:26:01.656Z,7.36
2019-02-05T21:28:30.342Z,7.37
2019-02-05T21:30:59.053Z,7.47
2019-02-05T21:33:27.731Z,7.41
2019-02-05T21:35:59.313Z,7.37
2019-02-05T21:38:27.966Z,7.30
2019-02-05T21:40:58.215Z,7.39
2019-02-05T21:43:26.772Z,7.41
2019-02-05T21:45:55.343Z,7.54
2019-02-05T21:48:24.292Z,7.64
2019-02-05T21:50:56.560Z,7.71
2019-02-05T21:53:25.200Z,7.72
2019-02-05T21:55:53.755Z,7.72
2019-02-05T21:58:25.549Z,7.74
2019-02-05T22:00:54.271Z,7.71
2019-02-05T22:03:23.998Z,7.71
2019-02-05T22:05:52.595Z,7.67
2019-02-05T22:08:21.271Z,7.52
2019-02-05T22:10:49.930Z,7.60
2019-02-05T22:13:18.518Z,7.38
2019-02-05T22:15:47.142Z,7.28
2019-02-05T22:18:15.681Z,7.01
2019-02-05T22:20:44.365Z,7.02
2019-02-05T22:23:13.644Z,7.00
2019-02-05T22:25:42.375Z,7.09
2019-02-05T22:28:14.038Z,7.28
2019-02-05T22:30:42.710Z,6.97
2019-02-05T22:33:11.376Z,6.81
2019-02-05T22:35:40.031Z,6.95
2019-02-05T22:38:08.712Z,6.87
2019-02-05T22:40:40.190Z,7.11
2019-02-05T22:43:09.208Z,6.93
2019-02-05T22:45:40.909Z,6.89
2019-02-05T22:48:08.243Z,6.63
2019-02-05T22:50:38.017Z,6.66
2019-02-05T22:53:09.298Z,6.68
2019-02-05T22:55:37.924Z,6.51
2019-02-05T22:58:07.060Z,6.50
2019-02-05T23:00:56.554Z,6.43
2019-02-05T23:03:30.666Z,6.28
2019-02-05T23:06:23.517Z,6.30
2019-02-05T23:08:53.271Z,6.38
2019-02-05T23:11:43.810Z,6.31
2019-02-05T23:14:12.441Z,6.27
2019-02-05T23:16:41.106Z,6.25
2019-02-05T23:19:09.736Z,6.20
2019-02-05T23:21:38.843Z,6.22
2019-02-05T23:24:07.485Z,6.23
2019-02-05T23:26:36.126Z,6.15
2019-02-05T23:29:04.812Z,6.33
2019-02-05T23:31:33.578Z,6.46
2019-02-05T23:34:06.114Z,6.23
2019-02-05T23:36:35.168Z,6.07
2019-02-05T23:39:04.844Z,5.90
2019-02-05T23:41:33.444Z,5.96
2019-02-05T23:44:02.091Z,6.19
2019-02-05T23:46:30.722Z,6.32
2019-02-05T23:48:59.320Z,6.30
2019-02-05T23:51:28.019Z,6.42
2019-02-05T23:53:56.688Z,6.34
2019-02-05T23:56:25.864Z,6.18
2019-02-05T23:58:54.979Z,6.48
